Time,TemperatureF,DewpointF,PressureIn,WindDirection,WindDirectionDegrees,WindSpeedMPH,WindSpeedGustMPH,Humidity,HourlyPrecipIn,Conditions,Clouds,dailyrainin,SolarRadiationWatts/m^2,SoftwareType,DateUTC
2014-01-05 00:00:00,65.2,63.1,30.08,West,270,0.0,2.0,93,0.00,,---,0.00,0.00,VWS V14.01,2014-01-05 05:00:00,
2014-01-05 00:11:00,65.3,63.0,30.07,SW,227,0.0,4.0,93,0.00,,,0.00,0,weatherlink.com 1.10,2014-01-05 05:11:00,
2014-01-05 00:26:00,66.0,64.0,30.05,SW,227,0.0,1.0,93,0.00,,,0.00,0,weatherlink.com 1.10,2014-01-05 05:26:00,
2014-01-05 00:30:00,66.0,63.9,30.05,West,270,0.0,4.0,93,0.00,,---,0.00,0.00,VWS V14.01,2014-01-05 05:30:00,
2014-01-05 00:41:00,65.9,64.0,30.06,SW,227,1.0,2.0,93,0.00,,,0.00,0,weatherlink.com 1.10,2014-01-05 05:41:00,
2014-01-05 00:56:00,65.3,63.0,30.06,WSW,246,4.0,6.0,93,0.00,,,0.00,0,weatherlink.com 1.10,2014-01-05 05:56:00,
2014-01-05 01:00:00,65.3,63.2,30.06,West,270,2.0,6.0,93,0.00,,---,0.00,0.00,VWS V14.01,2014-01-05 06:00:00,
2014-01-05 01:11:00,67.0,65.0,30.04,SE,140,2.0,5.0,94,0.00,,,0.00,0,weatherlink.com 1.10,2014-01-05 06:11:00,
2014-01-05 01:26:00,68.1,66.0,30.03,SE,134,0.0,5.0,93,0.00,,,0.00,0,weatherlink.com 1.10,2014-01-05 06:26:00,
2014-01-05 01:30:00,68.4,66.3,30.03,South,180,2.0,5.0,93,0.00,,---,0.00,0.00,VWS V14.01,2014-01-05 06:30:00,
2014-01-05 01:41:00,68.9,67.0,30.03,SE,134,3.0,4.0,92,0.00,,,0.00,0,weatherlink.com 1.10,2014-01-05 06:41:00,
2014-01-05 01:56:00,70.8,68.0,30.01,SE,134,11.0,14.0,92,0.00,,,0.00,0,weatherlink.com 1.10,2014-01-05 06:56:00,
2014-01-05 02:00:00,71.1,68.3,30.01,SSE,158,7.0,15.0,91,0.00,,---,0.00,0.00,VWS V14.01,2014-01-05 07:00:00,
2014-01-05 02:26:00,71.8,69.0,30.02,ESE,117,11.0,13.0,89,0.00,,,0.00,0,weatherlink.com 1.10,2014-01-05 07:26:00,
2014-01-05 02:30:00,71.9,68.5,30.01,SSE,158,11.0,17.0,89,0.00,,---,0.00,0.00,VWS V14.01,2014-01-05 07:30:00,
2014-01-05 02:41:00,71.8,69.0,30.02,SE,138,5.0,9.0,89,0.00,,,0.00,0,weatherlink.com 1.10,2014-01-05 07:41:00,
2014-01-05 02:56:00,71.7,68.0,30.00,ESE,107,7.0,9.0,89,0.00,,,0.00,0,weatherlink.com 1.10,2014-01-05 07:56:00,
2014-01-05 03:00:00,71.7,68.3,30.00,SSE,158,6.0,10.0,89,0.00,,---,0.00,0.00,VWS V14.01,2014-01-05 08:00:00,
2014-01-05 03:11:00,71.9,69.0,30.00,East,100,8.0,11.0,89,0.00,,,0.00,0,weatherlink.com 1.10,2014-01-05 08:11:00,
2014-01-05 03:26:00,71.8,69.0,30.00,ESE,119,7.0,11.0,90,0.00,,,0.00,0,weatherlink.com 1.10,2014-01-05 08:26:00,
2014-01-05 03:30:00,71.7,68.6,30.00,SSE,158,7.0,11.0,90,0.00,,---,0.00,0.00,VWS V14.01,2014-01-05 08:30:00,
2014-01-05 03:41:00,71.9,69.0,30.00,ESE,105,4.0,7.0,90,0.00,,,0.00,0,weatherlink.com 1.10,2014-01-05 08:41:00,
2014-01-05 03:56:00,71.8,69.0,30.01,ESE,115,0.0,7.0,89,0.00,,,0.00,0,weatherlink.com 1.10,2014-01-05 08:56:00,
2014-01-05 04:00:00,71.7,68.6,30.01,SSE,158,4.0,9.0,90,0.00,,---,0.00,0.00,VWS V14.01,2014-01-05 09:00:00,
2014-01-05 04:11:00,69.8,67.0,30.01,West,263,2.0,5.0,90,0.00,,,0.00,0,weatherlink.com 1.10,2014-01-05 09:11:00,
2014-01-05 04:26:00,69.4,67.0,29.99,West,276,0.0,3.0,91,0.00,,,0.00,0,weatherlink.com 1.10,2014-01-05 09:26:00,
2014-01-05 04:30:00,69.3,66.9,29.99,NW,315,1.0,5.0,92,0.00,,---,0.00,0.00,VWS V14.01,2014-01-05 09:30:00,
2014-01-05 04:41:00,69.7,68.0,29.99,NNW,346,1.0,4.0,93,0.00,,,0.00,0,weatherlink.com 1.10,2014-01-05 09:41:00,
2014-01-05 04:56:00,68.4,66.0,29.99,NNW,329,4.0,7.0,92,0.00,,,0.00,0,weatherlink.com 1.10,2014-01-05 09:56:00,
2014-01-05 05:00:00,68.0,65.6,29.99,NNE,22,3.0,8.0,92,0.00,,---,0.00,0.00,VWS V14.01,2014-01-05 10:00:00,
2014-01-05 05:11:00,67.4,65.0,29.99,NNW,331,7.0,17.0,93,0.00,,,0.00,0,weatherlink.com 1.10,2014-01-05 10:11:00,
2014-01-05 05:26:00,67.4,65.0,29.99,West,269,9.0,17.0,93,0.00,,,0.00,0,weatherlink.com 1.10,2014-01-05 10:26:00,
2014-01-05 05:30:00,67.2,65.1,29.99,North,360,8.0,17.0,93,0.00,,---,0.00,0.00,VWS V14.01,2014-01-05 10:30:00,
2014-01-05 05:41:00,65.9,64.0,30.00,WSW,257,4.0,17.0,93,0.00,,,0.00,0,weatherlink.com 1.10,2014-01-05 10:41:00,
2014-01-05 05:56:00,65.1,63.0,30.01,NW,319,5.0,16.0,92,0.00,,,0.00,0,weatherlink.com 1.10,2014-01-05 10:56:00,
2014-01-05 06:00:00,65.1,63.0,30.02,NNW,338,7.0,17.0,93,0.06,,---,0.06,0.00,VWS V14.01,2014-01-05 11:00:00,
2014-01-05 06:12:00,65.3,63.0,30.01,North,355,6.0,14.0,93,0.16,,,0.16,0,weatherlink.com 1.10,2014-01-05 11:12:00,
2014-01-05 06:27:00,65.1,63.0,30.03,WNW,285,8.0,16.0,94,0.16,,,0.16,0,weatherlink.com 1.10,2014-01-05 11:27:00,
2014-01-05 06:30:00,65.1,63.3,30.03,NNW,338,7.0,16.0,94,0.17,,---,0.17,0.00,VWS V14.01,2014-01-05 11:30:00,
2014-01-05 06:42:00,65.2,64.0,30.02,NW,326,8.0,13.0,94,0.21,,,0.21,0,weatherlink.com 1.10,2014-01-05 11:42:00,
2014-01-05 06:57:00,65.6,64.0,30.04,NNW,334,6.0,7.0,95,0.21,,,0.21,0,weatherlink.com 1.10,2014-01-05 11:57:00,
2014-01-05 07:00:00,65.7,64.2,30.04,NNE,22,5.0,13.0,95,0.22,,---,0.22,0.00,VWS V14.01,2014-01-05 12:00:00,
2014-01-05 07:12:00,66.5,65.0,30.04,NW,315,2.0,9.0,96,0.09,,,0.25,0,weatherlink.com 1.10,2014-01-05 12:12:00,
2014-01-05 07:27:00,67.5,66.0,30.04,NNE,14,3.0,9.0,96,0.10,,,0.26,5,weatherlink.com 1.10,2014-01-05 12:27:00,
2014-01-05 07:30:00,67.7,66.5,30.03,NNE,22,4.0,9.0,96,0.20,,---,0.26,1.00,VWS V14.01,2014-01-05 12:30:00,
2014-01-05 07:42:00,68.1,67.0,30.04,NW,325,4.0,8.0,96,0.05,,,0.26,11,weatherlink.com 1.10,2014-01-05 12:42:00,
2014-01-05 07:57:00,68.1,67.0,30.05,NW,323,3.0,5.0,96,0.05,,,0.26,9,weatherlink.com 1.10,2014-01-05 12:57:00,
2014-01-05 08:00:00,68.1,66.9,30.05,North,360,4.0,8.0,96,0.09,,---,0.26,10.00,VWS V14.01,2014-01-05 13:00:00,
2014-01-05 08:12:00,68.5,67.0,30.04,North,360,5.0,6.0,96,0.01,,,0.26,26,weatherlink.com 1.10,2014-01-05 13:12:00,
2014-01-05 08:27:00,68.8,68.0,30.04,NNE,17,6.0,7.0,96,0.00,,,0.26,84,weatherlink.com 1.10,2014-01-05 13:27:00,
2014-01-05 08:30:00,68.8,67.6,30.03,NE,45,4.0,8.0,96,0.04,,---,0.26,41.00,VWS V14.01,2014-01-05 13:30:00,
2014-01-05 08:42:00,69.0,68.0,30.03,North,360,2.0,6.0,96,0.00,,,0.26,109,weatherlink.com 1.10,2014-01-05 13:42:00,
2014-01-05 08:57:00,69.7,69.0,30.04,North,355,1.0,7.0,96,0.00,,,0.26,264,weatherlink.com 1.10,2014-01-05 13:57:00,
2014-01-05 09:00:00,69.8,68.6,30.04,NE,45,4.0,7.0,96,0.00,,---,0.26,160.00,VWS V14.01,2014-01-05 14:00:00,
2014-01-05 09:12:00,69.9,69.0,30.05,North,360,1.0,6.0,96,0.00,,,0.26,125,weatherlink.com 1.10,2014-01-05 14:12:00,
2014-01-05 09:27:00,70.9,70.0,30.07,North,360,2.0,4.0,95,0.00,,,0.26,392,weatherlink.com 1.10,2014-01-05 14:27:00,
2014-01-05 09:30:00,71.3,69.8,30.07,NE,45,2.0,6.0,95,0.00,,---,0.26,252.00,VWS V14.01,2014-01-05 14:30:00,
2014-01-05 09:42:00,71.2,69.0,30.07,North,360,3.0,4.0,94,0.00,,,0.26,403,weatherlink.com 1.10,2014-01-05 14:42:00,
2014-01-05 09:57:00,71.3,70.0,30.07,North,5,2.0,4.0,94,0.00,,,0.26,427,weatherlink.com 1.10,2014-01-05 14:57:00,
2014-01-05 10:00:00,71.4,69.6,30.07,NE,45,2.0,4.0,94,0.00,,---,0.26,409.00,VWS V14.01,2014-01-05 15:00:00,
2014-01-05 10:12:00,71.5,69.0,30.06,North,5,3.0,5.0,93,0.00,,,0.26,213,weatherlink.com 1.10,2014-01-05 15:12:00,
2014-01-05 10:27:00,71.7,69.0,30.07,North,9,4.0,6.0,92,0.00,,,0.26,381,weatherlink.com 1.10,2014-01-05 15:27:00,
2014-01-05 10:30:00,71.6,69.2,30.07,NE,45,3.0,6.0,92,0.00,,---,0.26,326.00,VWS V14.01,2014-01-05 15:30:00,
2014-01-05 10:42:00,71.9,70.0,30.06,North,360,3.0,5.0,93,0.00,,,0.26,520,weatherlink.com 1.10,2014-01-05 15:42:00,
2014-01-05 10:57:00,72.9,71.0,30.05,North,5,0.0,3.0,92,0.00,,,0.26,555,weatherlink.com 1.10,2014-01-05 15:57:00,
2014-01-05 11:00:00,73.2,70.4,30.05,NE,45,2.0,5.0,91,0.00,,---,0.26,515.00,VWS V14.01,2014-01-05 16:00:00,
2014-01-05 11:12:00,74.7,71.0,30.06,NNW,338,2.0,3.0,89,0.00,,,0.26,673,weatherlink.com 1.10,2014-01-05 16:12:00,
2014-01-05 11:27:00,74.6,71.0,30.05,NW,326,1.0,3.0,87,0.00,,,0.26,626,weatherlink.com 1.10,2014-01-05 16:27:00,
2014-01-05 11:30:00,74.9,70.8,30.05,North,360,1.0,3.0,87,0.00,,---,0.26,598.00,VWS V14.01,2014-01-05 16:30:00,
2014-01-05 11:42:00,74.8,70.0,30.04,NW,326,0.0,3.0,86,0.00,,,0.26,712,weatherlink.com 1.10,2014-01-05 16:42:00,
2014-01-05 11:57:00,75.8,71.0,30.03,NW,325,1.0,2.0,85,0.00,,,0.26,729,weatherlink.com 1.10,2014-01-05 16:57:00,
2014-01-05 12:00:00,75.8,70.6,30.03,North,360,1.0,3.0,84,0.00,,---,0.26,554.00,VWS V14.01,2014-01-05 17:00:00,
2014-01-05 12:12:00,76.2,70.0,30.02,NE,38,2.0,3.0,82,0.00,,,0.26,638,weatherlink.com 1.10,2014-01-05 17:12:00,
2014-01-05 12:27:00,75.5,71.0,30.00,NE,44,0.0,4.0,85,0.00,,,0.26,640,weatherlink.com 1.10,2014-01-05 17:27:00,
2014-01-05 12:30:00,75.4,70.6,30.00,North,360,1.0,4.0,85,0.00,,---,0.26,642.00,VWS V14.01,2014-01-05 17:30:00,
2014-01-05 12:42:00,75.5,71.0,29.99,SE,134,3.0,3.0,85,0.00,,,0.26,647,weatherlink.com 1.10,2014-01-05 17:42:00,
2014-01-05 12:57:00,75.7,71.0,29.99,ENE,70,1.0,6.0,84,0.00,,,0.26,731,weatherlink.com 1.10,2014-01-05 17:57:00,
2014-01-05 13:00:00,75.7,70.5,29.99,East,90,1.0,6.0,84,0.00,,---,0.26,662.00,VWS V14.01,2014-01-05 18:00:00,
2014-01-05 13:12:00,75.1,70.0,29.98,ENE,63,0.0,5.0,85,0.00,,,0.26,202,weatherlink.com 1.10,2014-01-05 18:12:00,
2014-01-05 13:27:00,74.6,71.0,29.98,NE,40,2.0,4.0,87,0.00,,,0.26,666,weatherlink.com 1.10,2014-01-05 18:27:00,
2014-01-05 13:30:00,75.2,71.1,29.98,East,90,1.0,5.0,87,0.00,,---,0.26,339.00,VWS V14.01,2014-01-05 18:30:00,
2014-01-05 13:42:00,75.6,71.0,29.98,East,98,3.0,5.0,85,0.00,,,0.26,631,weatherlink.com 1.10,2014-01-05 18:42:00,
2014-01-05 13:57:00,75.9,71.0,29.97,East,80,5.0,5.0,85,0.00,,,0.26,575,weatherlink.com 1.10,2014-01-05 18:57:00,
2014-01-05 14:00:00,75.9,71.1,29.97,ESE,112,2.0,6.0,85,0.00,,---,0.26,616.00,VWS V14.01,2014-01-05 19:00:00,
2014-01-05 14:12:00,75.9,71.0,29.97,SSE,148,3.0,4.0,85,0.00,,,0.26,610,weatherlink.com 1.10,2014-01-05 19:12:00,
2014-01-05 14:27:00,75.9,71.0,29.97,NW,319,2.0,5.0,84,0.00,,,0.26,533,weatherlink.com 1.10,2014-01-05 19:27:00,
2014-01-05 14:30:00,76.0,70.8,29.97,ESE,112,2.0,5.0,84,0.00,,---,0.26,594.00,VWS V14.01,2014-01-05 19:30:00,
2014-01-05 14:42:00,75.9,71.0,29.97,ENE,77,2.0,4.0,84,0.00,,,0.26,496,weatherlink.com 1.10,2014-01-05 19:42:00,
2014-01-05 14:57:00,75.3,71.0,29.96,NE,45,2.0,5.0,86,0.00,,,0.26,434,weatherlink.com 1.10,2014-01-05 19:57:00,
2014-01-05 15:00:00,75.1,70.6,29.96,ESE,112,2.0,5.0,86,0.00,,---,0.26,497.00,VWS V14.01,2014-01-05 20:00:00,
2014-01-05 15:12:00,74.5,71.0,29.97,ESE,107,3.0,5.0,87,0.00,,,0.26,455,weatherlink.com 1.10,2014-01-05 20:12:00,
2014-01-05 15:27:00,74.5,71.0,29.96,ESE,115,1.0,4.0,87,0.00,,,0.26,86,weatherlink.com 1.10,2014-01-05 20:27:00,
2014-01-05 15:30:00,74.5,70.4,29.96,SE,135,2.0,6.0,87,0.00,,---,0.26,253.00,VWS V14.01,2014-01-05 20:30:00,
2014-01-05 15:42:00,74.5,71.0,29.97,East,82,2.0,7.0,87,0.00,,,0.26,403,weatherlink.com 1.10,2014-01-05 20:42:00,
2014-01-05 15:57:00,73.7,70.0,29.98,East,101,5.0,7.0,89,0.00,,,0.26,142,weatherlink.com 1.10,2014-01-05 20:57:00,
2014-01-05 16:00:00,73.6,70.2,29.98,SSE,158,4.0,9.0,89,0.00,,---,0.26,205.00,VWS V14.01,2014-01-05 21:00:00,
2014-01-05 16:12:00,73.4,70.0,29.98,East,98,9.0,12.0,89,0.00,,,0.26,427,weatherlink.com 1.10,2014-01-05 21:12:00,
2014-01-05 16:27:00,73.0,70.0,29.97,SE,130,0.0,11.0,91,0.00,,,0.26,197,weatherlink.com 1.10,2014-01-05 21:27:00,
2014-01-05 16:30:00,73.1,70.3,29.97,SSE,158,5.0,12.0,91,0.00,,---,0.26,235.00,VWS V14.01,2014-01-05 21:30:00,
2014-01-05 16:42:00,73.4,71.0,29.98,WSW,253,1.0,3.0,91,0.00,,,0.26,26,weatherlink.com 1.10,2014-01-05 21:42:00,
2014-01-05 16:57:00,72.8,70.0,29.98,ENE,59,1.0,3.0,91,0.00,,,0.26,18,weatherlink.com 1.10,2014-01-05 21:57:00,
2014-01-05 17:00:00,72.8,70.0,29.98,West,270,1.0,3.0,91,0.00,,---,0.26,28.00,VWS V14.01,2014-01-05 22:00:00,
2014-01-05 17:12:00,72.8,70.0,29.99,WSW,246,0.0,7.0,92,0.00,,,0.26,9,weatherlink.com 1.10,2014-01-05 22:12:00,
2014-01-05 17:27:00,72.7,70.0,29.98,NW,314,0.0,11.0,91,0.06,,,0.32,12,weatherlink.com 1.10,2014-01-05 22:27:00,
2014-01-05 17:30:00,72.6,69.8,29.99,WNW,292,3.0,18.0,91,0.06,,---,0.32,13.00,VWS V14.01,2014-01-05 22:30:00,
2014-01-05 17:42:00,72.7,70.0,29.98,ESE,103,4.0,9.0,90,0.06,,,0.32,0,weatherlink.com 1.10,2014-01-05 22:42:00,
2014-01-05 17:58:00,73.0,70.0,29.98,SSE,148,0.0,7.0,89,0.06,,,0.32,0,weatherlink.com 1.10,2014-01-05 22:58:00,
2014-01-05 18:00:00,73.1,69.7,29.98,South,180,4.0,9.0,89,0.06,,---,0.32,1.00,VWS V14.01,2014-01-05 23:00:00,
2014-01-05 18:13:00,73.0,70.0,29.98,ESE,109,4.0,10.0,89,0.06,,,0.32,0,weatherlink.com 1.10,2014-01-05 23:13:00,
2014-01-05 18:28:00,72.6,70.0,29.98,ESE,115,5.0,10.0,90,0.00,,,0.32,0,weatherlink.com 1.10,2014-01-05 23:28:00,
2014-01-05 18:30:00,72.5,69.4,29.98,SSE,158,6.0,10.0,90,0.06,,---,0.32,0.00,VWS V14.01,2014-01-05 23:30:00,
2014-01-05 18:43:00,72.5,70.0,29.99,SSE,148,2.0,9.0,90,0.00,,,0.32,0,weatherlink.com 1.10,2014-01-05 23:43:00,
2014-01-05 18:58:00,72.3,69.0,30.00,North,355,2.0,13.0,90,0.00,,,0.32,0,weatherlink.com 1.10,2014-01-05 23:58:00,
2014-01-05 19:00:00,72.2,69.4,30.00,South,180,4.0,18.0,91,0.00,,---,0.32,0.00,VWS V14.01,2014-01-06 00:00:00,
2014-01-05 19:13:00,70.6,68.0,30.01,SW,221,3.0,12.0,91,0.15,,,0.47,0,weatherlink.com 1.10,2014-01-06 00:13:00,
2014-01-05 19:28:00,70.0,68.0,30.00,WSW,241,0.0,7.0,92,0.23,,,0.55,0,weatherlink.com 1.10,2014-01-06 00:28:00,
2014-01-05 19:30:00,69.9,67.8,30.00,WNW,292,4.0,12.0,93,0.23,,---,0.55,0.00,VWS V14.01,2014-01-06 00:30:00,
2014-01-05 19:43:00,69.9,68.0,30.00,ESE,121,1.0,3.0,93,0.24,,,0.56,0,weatherlink.com 1.10,2014-01-06 00:43:00,
2014-01-05 19:58:00,69.9,68.0,30.00,ESE,121,0.0,2.0,94,0.24,,,0.56,0,weatherlink.com 1.10,2014-01-06 00:58:00,
2014-01-05 20:00:00,69.8,68.0,30.00,SSE,158,1.0,3.0,94,0.24,,---,0.56,0.00,VWS V14.01,2014-01-06 01:00:00,
2014-01-05 20:13:00,69.6,68.0,30.00,ESE,121,0.0,0.0,94,0.09,,,0.56,0,weatherlink.com 1.10,2014-01-06 01:13:00,
2014-01-05 20:28:00,69.4,68.0,30.00,ESE,121,0.0,1.0,95,0.01,,,0.56,0,weatherlink.com 1.10,2014-01-06 01:28:00,
2014-01-05 20:30:00,69.4,67.9,30.00,SSE,158,0.0,1.0,95,0.24,,---,0.56,0.00,VWS V14.01,2014-01-06 01:30:00,
2014-01-05 20:43:00,68.9,68.0,30.00,ESE,121,0.0,0.0,95,0.00,,,0.56,0,weatherlink.com 1.10,2014-01-06 01:43:00,
2014-01-05 20:58:00,69.0,68.0,30.00,SE,124,1.0,2.0,95,0.00,,,0.56,0,weatherlink.com 1.10,2014-01-06 01:58:00,
2014-01-05 21:00:00,69.0,67.5,30.00,SSE,158,0.0,3.0,95,0.01,,---,0.56,0.00,VWS V14.01,2014-01-06 02:00:00,
2014-01-05 21:13:00,69.0,68.0,30.00,South,185,4.0,6.0,95,0.00,,,0.56,0,weatherlink.com 1.10,2014-01-06 02:13:00,
2014-01-05 21:28:00,68.8,67.0,30.00,South,185,0.0,3.0,95,0.00,,,0.56,0,weatherlink.com 1.10,2014-01-06 02:28:00,
2014-01-05 21:30:00,68.7,67.2,30.00,SW,225,2.0,6.0,95,0.00,,---,0.56,0.00,VWS V14.01,2014-01-06 02:30:00,
2014-01-05 21:43:00,68.5,67.0,30.00,South,185,0.0,3.0,95,0.00,,,0.56,0,weatherlink.com 1.10,2014-01-06 02:43:00,
2014-01-05 21:58:00,68.4,67.0,30.00,South,185,0.0,3.0,96,0.00,,,0.56,0,weatherlink.com 1.10,2014-01-06 02:58:00,
2014-01-05 22:00:00,68.4,67.2,30.00,SW,225,1.0,4.0,96,0.00,,---,0.56,0.00,VWS V14.01,2014-01-06 03:00:00,
2014-01-05 22:13:00,68.6,68.0,30.00,SSW,202,2.0,6.0,96,0.00,,,0.56,0,weatherlink.com 1.10,2014-01-06 03:13:00,
2014-01-05 22:28:00,68.5,67.0,29.99,SW,216,1.0,7.0,96,0.00,,,0.56,0,weatherlink.com 1.10,2014-01-06 03:28:00,
2014-01-05 22:30:00,68.5,67.3,29.99,WSW,248,2.0,7.0,96,0.00,,---,0.56,0.00,VWS V14.01,2014-01-06 03:30:00,
2014-01-05 22:43:00,68.3,67.0,29.99,SSW,210,0.0,3.0,96,0.00,,,0.56,0,weatherlink.com 1.10,2014-01-06 03:43:00,
2014-01-05 22:58:00,68.1,67.0,29.99,SSW,211,0.0,4.0,96,0.00,,,0.56,0,weatherlink.com 1.10,2014-01-06 03:58:00,
2014-01-05 23:00:00,68.1,66.9,29.99,WSW,248,1.0,7.0,96,0.00,,---,0.56,0.00,VWS V14.01,2014-01-06 04:00:00,
2014-01-05 23:13:00,68.1,67.0,29.98,SSW,213,0.0,4.0,96,0.00,,,0.56,0,weatherlink.com 1.10,2014-01-06 04:13:00,
2014-01-05 23:28:00,67.9,67.0,29.98,SW,214,0.0,2.0,96,0.00,,,0.56,0,weatherlink.com 1.10,2014-01-06 04:28:00,
2014-01-05 23:30:00,67.9,66.7,29.98,WSW,248,1.0,5.0,96,0.00,,---,0.56,0.00,VWS V14.01,2014-01-06 04:30:00,
2014-01-05 23:43:00,67.9,67.0,29.98,SSW,206,2.0,6.0,97,0.00,,,0.56,0,weatherlink.com 1.10,2014-01-06 04:43:00,
2014-01-05 23:58:00,67.9,67.0,29.98,SSW,211,0.0,6.0,97,0.00,,,0.56,0,weatherlink.com 1.10,2014-01-06 04:58:00,